createdAt,value
2023-02-11T00:01:39.700Z,101911.16
2023-02-11T00:04:08.464Z,101922.91
2023-02-11T00:06:36.617Z,101916.03
2023-02-11T00:09:06.091Z,101911.03
2023-02-11T00:11:34.903Z,101912.75
2023-02-11T00:14:12.421Z,101902.53
2023-02-11T00:16:41.104Z,101911.97
2023-02-11T00:19:09.840Z,101908.53
2023-02-11T00:21:38.344Z,101910.12
2023-02-11T00:24:06.873Z,101906.53
2023-02-11T00:26:36.345Z,101899.84
2023-02-11T00:29:05.791Z,101898.97
2023-02-11T00:31:35.140Z,101899.22
2023-02-11T00:34:03.350Z,101890.78
2023-02-11T00:36:31.691Z,101905.09
2023-02-11T00:39:00.860Z,101899.00
2023-02-11T00:41:29.845Z,101907.47
2023-02-11T00:44:01.483Z,101898.81
2023-02-11T00:46:30.419Z,101897.34
2023-02-11T00:48:59.109Z,101886.41
2023-02-11T00:51:32.856Z,101882.94
2023-02-11T00:54:01.221Z,101870.87
2023-02-11T00:56:29.285Z,101877.56
2023-02-11T00:58:57.731Z,101863.87
2023-02-11T01:01:26.613Z,101859.63
2023-02-11T01:03:55.073Z,101870.56
2023-02-11T01:06:24.084Z,101857.03
2023-02-11T01:08:53.000Z,101863.81
2023-02-11T01:11:22.273Z,101859.38
2023-02-11T01:13:51.079Z,101856.69
2023-02-11T01:16:20.612Z,101849.84
2023-02-11T01:18:49.034Z,101853.41
2023-02-11T01:21:18.964Z,101850.94
2023-02-11T01:23:47.737Z,101846.53
2023-02-11T01:26:16.170Z,101855.31
2023-02-11T01:28:44.534Z,101848.31
2023-02-11T01:31:13.227Z,101839.19
2023-02-11T01:33:41.705Z,101843.50
2023-02-11T01:36:11.855Z,101842.50
2023-02-11T01:38:41.248Z,101838.44
2023-02-11T01:41:12.510Z,101841.09
2023-02-11T01:43:44.853Z,101842.00
2023-02-11T01:46:20.706Z,101843.69
2023-02-11T01:48:54.662Z,101831.03
2023-02-11T01:51:27.889Z,101827.66
2023-02-11T01:54:17.007Z,101832.09
2023-02-11T01:57:08.356Z,101814.28
2023-02-11T01:59:45.132Z,101820.19
2023-02-11T02:02:17.665Z,101812.84
2023-02-11T02:05:17.335Z,101815.38
2023-02-11T02:08:17.714Z,101827.03
2023-02-11T02:10:49.203Z,101821.50
2023-02-11T02:13:17.671Z,101820.13
2023-02-11T02:15:53.488Z,101825.91
2023-02-11T02:18:40.639Z,101820.00
2023-02-11T02:21:49.645Z,101824.28
2023-02-11T02:24:51.249Z,101831.97
2023-02-11T02:27:47.241Z,101827.63
2023-02-11T02:30:33.467Z,101830.13
2023-02-11T02:33:21.466Z,101827.66
2023-02-11T02:35:57.892Z,101833.66
2023-02-11T02:38:34.627Z,101831.25
2023-02-11T02:41:13.030Z,101816.97
2023-02-11T02:43:48.150Z,101816.03
2023-02-11T02:46:20.883Z,101807.72
2023-02-11T02:48:52.819Z,101821.41
2023-02-11T02:51:39.959Z,101820.13
2023-02-11T02:54:37.287Z,101821.06
2023-02-11T02:57:42.494Z,101800.50
2023-02-11T03:00:52.467Z,101798.34
2023-02-11T03:03:20.543Z,101802.75
2023-02-11T03:05:58.734Z,101800.78
2023-02-11T03:08:46.094Z,101801.56
2023-02-11T03:11:17.509Z,101791.59
2023-02-11T03:13:47.742Z,101788.19
2023-02-11T03:16:25.661Z,101782.09
2023-02-11T03:19:06.145Z,101782.78
2023-02-11T03:21:39.215Z,101770.62
2023-02-11T03:24:13.309Z,101789.25
2023-02-11T03:26:52.834Z,101768.72
2023-02-11T03:29:59.795Z,101782.34
2023-02-11T03:32:37.031Z,101774.69
2023-02-11T03:35:23.042Z,101771.12
2023-02-11T03:38:02.481Z,101768.50
2023-02-11T03:40:35.346Z,101770.91
2023-02-11T03:43:14.154Z,101768.38
2023-02-11T03:45:42.272Z,101760.16
2023-02-11T03:48:25.531Z,101753.25
2023-02-11T03:50:56.318Z,101745.53
2023-02-11T03:53:24.758Z,101750.00
2023-02-11T03:55:57.212Z,101738.03
2023-02-11T03:58:26.103Z,101746.56
2023-02-11T04:00:54.450Z,101730.41
2023-02-11T04:03:22.966Z,101739.41
2023-02-11T04:05:51.583Z,101722.41
2023-02-11T04:08:20.473Z,101714.00
2023-02-11T04:10:48.906Z,101729.28
2023-02-11T04:13:17.040Z,101721.72
2023-02-11T04:15:47.809Z,101715.03
2023-02-11T04:18:17.449Z,101721.00
2023-02-11T04:20:45.676Z,101718.44
2023-02-11T04:23:14.050Z,101711.53
2023-02-11T04:25:44.700Z,101720.81
2023-02-11T04:28:13.382Z,101716.53
2023-02-11T04:30:47.948Z,101703.72
2023-02-11T04:33:19.057Z,101705.34
2023-02-11T04:35:50.871Z,101706.75
2023-02-11T04:38:19.707Z,101702.53
2023-02-11T04:40:48.214Z,101709.44
2023-02-11T04:43:16.476Z,101701.19
2023-02-11T04:45:44.859Z,101703.50
2023-02-11T04:48:13.004Z,101699.25
2023-02-11T04:50:41.700Z,101713.62
2023-02-11T04:53:15.625Z,101708.41
2023-02-11T04:55:43.717Z,101709.19
2023-02-11T04:58:12.103Z,101709.19
2023-02-11T05:00:40.370Z,101717.66
2023-02-11T05:03:08.489Z,101710.84
2023-02-11T05:05:43.486Z,101715.31
2023-02-11T05:08:11.924Z,101705.88
2023-02-11T05:10:42.697Z,101707.53
2023-02-11T05:13:10.864Z,101705.75
2023-02-11T05:15:39.111Z,101707.75
2023-02-11T05:18:07.613Z,101707.03
2023-02-11T05:20:38.888Z,101711.41
2023-02-11T05:23:07.440Z,101707.16
2023-02-11T05:25:35.576Z,101705.56
2023-02-11T05:28:04.986Z,101715.09
2023-02-11T05:30:33.934Z,101712.63
2023-02-11T05:33:01.964Z,101710.91
2023-02-11T05:35:30.125Z,101705.09
2023-02-11T05:37:58.522Z,101705.06
2023-02-11T05:40:26.826Z,101690.66
2023-02-11T05:42:55.071Z,101690.53
2023-02-11T05:45:23.395Z,101697.19
2023-02-11T05:47:51.463Z,101700.59
2023-02-11T05:50:19.786Z,101704.91
2023-02-11T05:52:48.328Z,101698.09
2023-02-11T05:55:19.496Z,101695.63
2023-02-11T05:57:48.035Z,101697.28
2023-02-11T06:00:22.384Z,101696.56
2023-02-11T06:02:50.978Z,101701.72
2023-02-11T06:05:19.528Z,101699.97
2023-02-11T06:07:48.056Z,101687.97
2023-02-11T06:10:18.852Z,101688.00
2023-02-11T06:12:56.812Z,101696.56
2023-02-11T06:15:25.926Z,101682.13
2023-02-11T06:17:54.756Z,101670.25
2023-02-11T06:20:25.540Z,101666.88
2023-02-11T06:22:54.156Z,101668.44
2023-02-11T06:25:22.163Z,101663.22
2023-02-11T06:27:50.412Z,101687.72
2023-02-11T06:30:18.993Z,101684.25
2023-02-11T06:32:47.550Z,101684.37
2023-02-11T06:35:15.750Z,101678.69
2023-02-11T06:37:44.245Z,101677.84
2023-02-11T06:40:12.959Z,101674.47
2023-02-11T06:42:41.824Z,101677.56
2023-02-11T06:45:11.132Z,101679.22
2023-02-11T06:47:40.664Z,101667.13
2023-02-11T06:50:13.281Z,101676.28
2023-02-11T06:52:41.784Z,101676.47
2023-02-11T06:55:09.959Z,101677.56
2023-02-11T06:57:38.235Z,101667.28
2023-02-11T07:00:07.403Z,101675.84
2023-02-11T07:02:36.436Z,101675.69
2023-02-11T07:05:06.859Z,101680.75
2023-02-11T07:07:37.044Z,101673.78
2023-02-11T07:10:05.964Z,101671.47
2023-02-11T07:12:34.733Z,101677.47
2023-02-11T07:15:03.472Z,101677.50
2023-02-11T07:17:31.719Z,101666.97
2023-02-11T07:20:00.044Z,101665.81
2023-02-11T07:22:28.478Z,101659.69
2023-02-11T07:24:56.575Z,101658.81
2023-02-11T07:27:24.684Z,101662.28
2023-02-11T07:29:53.219Z,101664.66
2023-02-11T07:32:21.839Z,101653.69
2023-02-11T07:34:50.051Z,101653.47
2023-02-11T07:37:18.832Z,101655.75
2023-02-11T07:39:46.982Z,101653.09
2023-02-11T07:42:15.222Z,101651.41
2023-02-11T07:44:44.197Z,101662.62
2023-02-11T07:47:12.336Z,101660.91
2023-02-11T07:49:40.605Z,101653.78
2023-02-11T07:52:09.382Z,101645.16
2023-02-11T07:54:40.466Z,101657.00
2023-02-11T07:57:09.012Z,101652.56
2023-02-11T07:59:37.455Z,101649.81
2023-02-11T08:02:05.867Z,101646.91
2023-02-11T08:04:34.786Z,101650.25
2023-02-11T08:07:03.017Z,101638.28
2023-02-11T08:09:33.462Z,101628.94
2023-02-11T08:12:03.238Z,101623.69
2023-02-11T08:14:32.838Z,101629.03
2023-02-11T08:17:01.101Z,101623.09
2023-02-11T08:19:29.767Z,101634.81
2023-02-11T08:21:59.944Z,101634.06
2023-02-11T08:24:28.533Z,101633.84
2023-02-11T08:26:56.898Z,101635.38
2023-02-11T08:29:25.242Z,101649.88
2023-02-11T08:31:53.641Z,101635.19
2023-02-11T08:34:22.273Z,101636.56
2023-02-11T08:36:50.315Z,101642.38
2023-02-11T08:39:21.295Z,101642.25
2023-02-11T08:41:53.095Z,101630.78
2023-02-11T08:44:22.171Z,101641.62
2023-02-11T08:46:51.667Z,101646.69
2023-02-11T08:49:20.742Z,101632.56
2023-02-11T08:51:50.701Z,101632.84
2023-02-11T08:54:19.494Z,101634.16
2023-02-11T08:56:52.001Z,101625.00
2023-02-11T08:59:20.844Z,101631.47
2023-02-11T09:01:49.550Z,101626.78
2023-02-11T09:04:17.971Z,101606.81
2023-02-11T09:06:46.602Z,101600.44
2023-02-11T09:09:15.851Z,101590.94
2023-02-11T09:11:44.893Z,101597.03
2023-02-11T09:14:20.474Z,101599.78
2023-02-11T09:16:49.415Z,101599.72
2023-02-11T09:19:18.352Z,101599.59
2023-02-11T09:21:47.034Z,101596.56
2023-02-11T09:24:15.893Z,101600.31
2023-02-11T09:26:44.786Z,101596.37
2023-02-11T09:29:13.641Z,101594.22
2023-02-11T09:31:42.421Z,101589.19
2023-02-11T09:34:11.912Z,101589.25
2023-02-11T09:36:41.205Z,101579.63
2023-02-11T09:39:13.708Z,101584.56
2023-02-11T09:42:03.518Z,101571.44
2023-02-11T09:44:35.055Z,101581.34
2023-02-11T09:47:24.089Z,101567.78
2023-02-11T09:50:00.691Z,101569.63
2023-02-11T09:52:51.816Z,101558.00
2023-02-11T09:55:45.272Z,101559.03
2023-02-11T09:58:15.212Z,101556.47
2023-02-11T10:01:13.290Z,101558.25
2023-02-11T10:04:05.357Z,101564.41
2023-02-11T10:07:03.674Z,101565.44
2023-02-11T10:09:47.083Z,101564.25
2023-02-11T10:12:35.616Z,101568.31
2023-02-11T10:15:13.700Z,101564.97
2023-02-11T10:18:16.674Z,101550.84
2023-02-11T10:21:02.528Z,101547.56
2023-02-11T10:23:33.810Z,101543.97
2023-02-11T10:26:03.308Z,101541.56
2023-02-11T10:28:35.089Z,101532.66
2023-02-11T10:31:24.798Z,101517.87
2023-02-11T10:34:04.744Z,101532.59
2023-02-11T10:36:42.047Z,101526.31
2023-02-11T10:39:22.234Z,101508.56
2023-02-11T10:41:54.866Z,101497.84
2023-02-11T10:44:29.025Z,101483.88
2023-02-11T10:47:02.112Z,101500.97
2023-02-11T10:49:35.346Z,101498.19
2023-02-11T10:52:27.019Z,101485.06
2023-02-11T10:55:10.595Z,101476.31
2023-02-11T10:57:54.775Z,101473.13
2023-02-11T11:00:42.520Z,101479.47
2023-02-11T11:03:24.632Z,101466.84
2023-02-11T11:05:59.944Z,101462.56
2023-02-11T11:08:51.609Z,101453.63
2023-02-11T11:11:25.690Z,101451.63
2023-02-11T11:13:59.141Z,101471.37
2023-02-11T11:16:36.860Z,101463.94
2023-02-11T11:19:08.834Z,101463.59
2023-02-11T11:21:48.325Z,101464.94
2023-02-11T11:24:40.203Z,101459.31
2023-02-11T11:27:19.724Z,101452.94
2023-02-11T11:29:51.912Z,101435.34
2023-02-11T11:32:24.137Z,101435.66
2023-02-11T11:34:59.353Z,101424.66
2023-02-11T11:37:29.827Z,101414.09
2023-02-11T11:40:13.545Z,101411.56
2023-02-11T11:42:42.343Z,101427.84
2023-02-11T11:45:19.619Z,101417.13
2023-02-11T11:47:54.658Z,101425.34
2023-02-11T11:50:27.995Z,101410.03
2023-02-11T11:53:00.278Z,101419.78
2023-02-11T11:55:38.100Z,101409.00
2023-02-11T11:58:15.411Z,101400.19
2023-02-11T12:00:55.815Z,101390.06
2023-02-11T12:03:33.639Z,101391.28
2023-02-11T12:06:19.179Z,101383.91
2023-02-11T12:09:07.957Z,101375.63
2023-02-11T12:12:11.084Z,101364.41
2023-02-11T12:14:58.394Z,101355.94
2023-02-11T12:17:49.990Z,101344.84
2023-02-11T12:20:33.004Z,101354.56
2023-02-11T12:23:41.609Z,101355.72
2023-02-11T12:26:46.344Z,101357.69
2023-02-11T12:29:40.480Z,101342.53
2023-02-11T12:33:05.149Z,101332.72
2023-02-11T12:35:55.712Z,101324.56
2023-02-11T12:38:46.421Z,101327.66
2023-02-11T12:41:54.946Z,101328.91
2023-02-11T12:44:36.641Z,101309.53
2023-02-11T12:47:25.428Z,101321.84
2023-02-11T12:50:28.133Z,101317.53
2023-02-11T12:53:15.821Z,101312.41
2023-02-11T12:55:49.680Z,101320.97
2023-02-11T12:58:29.633Z,101318.88
2023-02-11T13:01:16.828Z,101306.59
2023-02-11T13:04:00.404Z,101310.00
2023-02-11T13:06:36.249Z,101304.50
2023-02-11T13:09:10.106Z,101314.03
2023-02-11T13:11:51.906Z,101301.47
2023-02-11T13:14:47.733Z,101296.75
2023-02-11T13:17:27.565Z,101296.53
2023-02-11T13:20:05.601Z,101271.94
2023-02-11T13:22:48.897Z,101274.78
2023-02-11T13:25:29.944Z,101281.78
2023-02-11T13:28:23.941Z,101272.44
2023-02-11T13:31:02.271Z,101270.91
2023-02-11T13:33:33.020Z,101272.78
2023-02-11T13:36:04.193Z,101264.16
2023-02-11T13:38:33.764Z,101270.16
2023-02-11T13:41:38.805Z,101264.41
2023-02-11T13:44:10.748Z,101263.06
2023-02-11T13:47:00.157Z,101266.94
2023-02-11T13:49:41.197Z,101267.34
2023-02-11T13:52:26.032Z,101263.19
2023-02-11T13:54:59.255Z,101268.28
2023-02-11T13:57:31.237Z,101254.53
2023-02-11T14:00:27.463Z,101261.44
2023-02-11T14:03:30.019Z,101256.03
2023-02-11T14:06:38.391Z,101258.75
2023-02-11T14:09:13.837Z,101260.84
2023-02-11T14:11:51.627Z,101243.06
2023-02-11T14:14:33.548Z,101249.56
2023-02-11T14:17:07.975Z,101268.59
2023-02-11T14:19:40.841Z,101271.78
2023-02-11T14:22:13.789Z,101289.38
2023-02-11T14:24:57.606Z,101288.31
2023-02-11T14:27:55.330Z,101287.47
2023-02-11T14:30:30.459Z,101276.63
2023-02-11T14:33:20.271Z,101298.72
2023-02-11T14:36:26.198Z,101299.59
2023-02-11T14:39:16.066Z,101299.34
2023-02-11T14:41:47.234Z,101301.41
2023-02-11T14:44:18.043Z,101306.28
2023-02-11T14:46:50.193Z,101295.38
2023-02-11T14:49:27.618Z,101288.75
2023-02-11T14:52:07.752Z,101287.87
2023-02-11T14:54:36.475Z,101272.09
2023-02-11T14:57:06.230Z,101271.69
2023-02-11T14:59:34.623Z,101256.50
2023-02-11T15:02:03.200Z,101242.31
2023-02-11T15:04:36.193Z,101238.16
2023-02-11T15:07:07.317Z,101235.16
2023-02-11T15:09:54.437Z,101235.53
2023-02-11T15:12:26.682Z,101240.94
2023-02-11T15:14:58.954Z,101242.09
2023-02-11T15:17:30.854Z,101249.03
2023-02-11T15:20:02.508Z,101248.34
2023-02-11T15:22:36.801Z,101249.94
2023-02-11T15:25:17.489Z,101257.53
2023-02-11T15:27:51.372Z,101244.06
2023-02-11T15:30:29.737Z,101238.81
2023-02-11T15:33:00.525Z,101236.34
2023-02-11T15:35:36.675Z,101236.34
2023-02-11T15:38:05.792Z,101232.53
2023-02-11T15:40:36.794Z,101219.53
2023-02-11T15:43:08.544Z,101212.03
2023-02-11T15:45:41.620Z,101211.66
2023-02-11T15:48:16.268Z,101216.28
2023-02-11T15:50:52.180Z,101227.00
2023-02-11T15:53:31.586Z,101222.91
2023-02-11T15:56:30.777Z,101222.31
2023-02-11T15:59:09.403Z,101211.44
2023-02-11T16:01:39.631Z,101205.22
2023-02-11T16:04:19.929Z,101204.31
2023-02-11T16:06:50.075Z,101191.38
2023-02-11T16:09:18.884Z,101190.84
2023-02-11T16:11:47.357Z,101195.63
2023-02-11T16:14:28.151Z,101190.06
2023-02-11T16:17:03.718Z,101189.66
2023-02-11T16:19:34.108Z,101186.19
2023-02-11T16:22:09.326Z,101188.97
2023-02-11T16:24:39.412Z,101180.84
2023-02-11T16:27:35.156Z,101188.00
2023-02-11T16:30:05.598Z,101189.59
2023-02-11T16:32:34.616Z,101180.84
2023-02-11T16:35:10.904Z,101160.53
2023-02-11T16:37:39.700Z,101170.38
2023-02-11T16:40:09.815Z,101172.53
2023-02-11T16:42:38.435Z,101172.94
2023-02-11T16:45:07.100Z,101173.09
2023-02-11T16:47:36.074Z,101162.06
2023-02-11T16:50:09.483Z,101176.25
2023-02-11T16:52:38.398Z,101188.66
2023-02-11T16:55:06.931Z,101186.44
2023-02-11T16:57:35.584Z,101173.00
2023-02-11T17:00:06.698Z,101198.66
2023-02-11T17:02:37.272Z,101198.38
2023-02-11T17:05:08.540Z,101189.91
2023-02-11T17:07:36.861Z,101188.00
2023-02-11T17:10:14.386Z,101184.25
2023-02-11T17:12:43.331Z,101179.72
2023-02-11T17:15:11.688Z,101184.69
2023-02-11T17:17:40.088Z,101204.59
2023-02-11T17:20:12.883Z,101206.69
2023-02-11T17:22:41.508Z,101201.03
2023-02-11T17:25:10.688Z,101196.81
2023-02-11T17:27:39.182Z,101206.06
2023-02-11T17:30:09.375Z,101201.09
2023-02-11T17:32:38.252Z,101212.38
2023-02-11T17:35:07.882Z,101211.34
2023-02-11T17:37:36.213Z,101216.84
2023-02-11T17:40:05.563Z,101206.25
2023-02-11T17:42:34.128Z,101202.09
2023-02-11T17:45:03.042Z,101200.47
2023-02-11T17:47:31.923Z,101183.25
2023-02-11T17:50:00.376Z,101188.69
2023-02-11T17:52:29.072Z,101196.94
2023-02-11T17:54:58.141Z,101190.06
2023-02-11T17:57:26.554Z,101178.38
2023-02-11T17:59:55.205Z,101182.19
2023-02-11T18:02:24.113Z,101183.72
2023-02-11T18:04:53.340Z,101195.16
2023-02-11T18:07:21.982Z,101173.16
2023-02-11T18:09:50.696Z,101175.87
2023-02-11T18:12:26.460Z,101176.41
2023-02-11T18:14:57.874Z,101164.62
2023-02-11T18:17:26.962Z,101161.38
2023-02-11T18:19:57.160Z,101150.53
2023-02-11T18:22:26.068Z,101158.34
2023-02-11T18:24:55.316Z,101152.06
2023-02-11T18:27:23.634Z,101151.34
2023-02-11T18:29:52.244Z,101154.78
2023-02-11T18:32:20.970Z,101153.47
2023-02-11T18:34:49.616Z,101154.91
2023-02-11T18:37:18.065Z,101150.06
2023-02-11T18:39:46.912Z,101147.91
2023-02-11T18:42:15.397Z,101152.28
2023-02-11T18:44:44.823Z,101151.00
2023-02-11T18:47:13.470Z,101149.94
2023-02-11T18:49:45.371Z,101156.09
2023-02-11T18:52:14.200Z,101158.06
2023-02-11T18:54:42.591Z,101164.31
2023-02-11T18:57:11.061Z,101165.69
2023-02-11T18:59:40.036Z,101171.75
2023-02-11T19:02:09.569Z,101162.16
2023-02-11T19:04:38.341Z,101165.97
2023-02-11T19:07:07.295Z,101163.22
2023-02-11T19:09:36.111Z,101167.41
2023-02-11T19:12:04.806Z,101174.50
2023-02-11T19:14:34.902Z,101176.25
2023-02-11T19:17:06.163Z,101179.00
2023-02-11T19:19:36.587Z,101184.25
2023-02-11T19:22:10.597Z,101182.81
2023-02-11T19:24:39.950Z,101192.34
2023-02-11T19:27:08.416Z,101185.47
2023-02-11T19:29:36.846Z,101181.75
2023-02-11T19:32:06.767Z,101178.78
2023-02-11T19:34:41.224Z,101177.44
2023-02-11T19:37:12.937Z,101180.94
2023-02-11T19:39:42.729Z,101178.88
2023-02-11T19:42:12.918Z,101181.38
2023-02-11T19:44:42.305Z,101182.81
2023-02-11T19:47:12.791Z,101185.16
2023-02-11T19:49:41.363Z,101191.31
2023-02-11T19:52:09.754Z,101183.66
2023-02-11T19:54:38.619Z,101179.03
2023-02-11T19:57:07.144Z,101183.41
2023-02-11T19:59:35.635Z,101177.50
2023-02-11T20:02:04.558Z,101185.22
2023-02-11T20:04:33.371Z,101183.47
2023-02-11T20:07:01.511Z,101179.72
2023-02-11T20:09:31.825Z,101172.25
2023-02-11T20:12:00.732Z,101173.84
2023-02-11T20:14:29.441Z,101165.50
2023-02-11T20:16:57.945Z,101166.13
2023-02-11T20:19:27.982Z,101171.28
2023-02-11T20:21:56.408Z,101190.38
2023-02-11T20:24:25.539Z,101183.84
2023-02-11T20:26:57.185Z,101171.28
2023-02-11T20:29:26.104Z,101170.75
2023-02-11T20:31:55.747Z,101159.66
2023-02-11T20:34:25.365Z,101160.44
2023-02-11T20:36:54.848Z,101162.41
2023-02-11T20:39:25.092Z,101147.78
2023-02-11T20:41:54.019Z,101140.25
2023-02-11T20:44:23.444Z,101142.06
2023-02-11T20:46:54.148Z,101143.75
2023-02-11T20:49:25.004Z,101131.97
2023-02-11T20:51:54.149Z,101136.28
2023-02-11T20:54:24.636Z,101142.84
2023-02-11T20:56:56.871Z,101156.94
2023-02-11T20:59:26.480Z,101136.25
2023-02-11T21:01:56.522Z,101131.75
2023-02-11T21:04:29.971Z,101129.56
2023-02-11T21:07:01.581Z,101125.75
2023-02-11T21:09:32.428Z,101132.88
2023-02-11T21:12:01.883Z,101131.97
2023-02-11T21:14:30.522Z,101134.72
2023-02-11T21:16:59.129Z,101142.06
2023-02-11T21:19:28.985Z,101138.81
2023-02-11T21:22:00.668Z,101132.28
2023-02-11T21:24:30.973Z,101140.19
2023-02-11T21:26:59.342Z,101140.53
2023-02-11T21:29:27.771Z,101129.41
2023-02-11T21:31:56.453Z,101144.47
2023-02-11T21:34:24.778Z,101157.94
2023-02-11T21:36:53.130Z,101159.28
2023-02-11T21:39:21.917Z,101154.97
2023-02-11T21:41:50.185Z,101153.97
2023-02-11T21:44:19.196Z,101124.63
2023-02-11T21:46:48.151Z,101135.91
2023-02-11T21:49:16.490Z,101138.13
2023-02-11T21:51:45.055Z,101142.63
2023-02-11T21:54:13.856Z,101133.94
2023-02-11T21:56:42.312Z,101133.22
2023-02-11T21:59:14.192Z,101129.63
2023-02-11T22:01:45.022Z,101132.13
2023-02-11T22:04:13.994Z,101141.59
2023-02-11T22:06:42.193Z,101138.97
2023-02-11T22:09:11.117Z,101159.34
2023-02-11T22:11:40.570Z,101155.87
2023-02-11T22:14:08.976Z,101153.53
2023-02-11T22:16:37.524Z,101140.31
2023-02-11T22:19:07.555Z,101143.13
2023-02-11T22:21:36.033Z,101161.81
2023-02-11T22:24:04.273Z,101148.63
2023-02-11T22:26:33.144Z,101151.19
2023-02-11T22:29:01.473Z,101166.38
2023-02-11T22:31:32.465Z,101140.59
2023-02-11T22:34:03.373Z,101142.88
2023-02-11T22:36:35.752Z,101143.66
2023-02-11T22:39:07.507Z,101142.88
2023-02-11T22:41:35.770Z,101135.06
2023-02-11T22:44:04.571Z,101137.53
2023-02-11T22:46:32.949Z,101144.91
2023-02-11T22:49:01.848Z,101141.31
2023-02-11T22:51:30.996Z,101135.81
2023-02-11T22:54:03.258Z,101120.88
2023-02-11T22:56:33.686Z,101139.66
2023-02-11T22:59:07.353Z,101146.84
2023-02-11T23:01:36.128Z,101160.94
2023-02-11T23:04:08.451Z,101178.06
2023-02-11T23:06:37.186Z,101162.53
2023-02-11T23:09:08.219Z,101160.13
2023-02-11T23:11:36.997Z,101160.75
2023-02-11T23:14:05.696Z,101162.09
2023-02-11T23:16:34.707Z,101158.69
2023-02-11T23:19:06.253Z,101157.31
2023-02-11T23:21:37.104Z,101160.56
2023-02-11T23:24:10.474Z,101160.72
2023-02-11T23:26:39.955Z,101166.72
2023-02-11T23:29:09.233Z,101159.88
2023-02-11T23:31:40.496Z,101172.94
2023-02-11T23:34:09.383Z,101166.16
2023-02-11T23:36:37.655Z,101150.22
2023-02-11T23:39:06.218Z,101140.75
2023-02-11T23:41:34.788Z,101139.47
2023-02-11T23:44:02.948Z,101148.94
2023-02-11T23:46:31.562Z,101159.00
2023-02-11T23:49:00.239Z,101158.22
2023-02-11T23:51:28.417Z,101149.69
2023-02-11T23:53:56.873Z,101152.50
2023-02-11T23:56:27.988Z,101170.44
2023-02-11T23:58:58.497Z,101162.87
